sensor_id;sensor_type;location;lat;lon;timestamp;P1;durP1;ratioP1;P2;durP2;ratioP2
22610;SDS011;11472;45.494;12.142;2022-09-01T00:00:06;4.80;;;3.10;;
22610;SDS011;11472;45.494;12.142;2022-09-01T00:01:02;4.80;;;3.10;;
22610;SDS011;11472;45.494;12.142;2022-09-01T00:02:07;4.80;;;3.10;;
22610;SDS011;11472;45.494;12.142;2022-09-01T00:03:00;4.80;;;3.10;;
22610;SDS011;11472;45.494;12.142;2022-09-01T00:04:02;4.80;;;3.10;;
22610;SDS011;11472;45.494;12.142;2022-09-01T00:05:01;4.80;;;3.10;;
22610;SDS011;11472;45.494;12.142;2022-09-01T00:06:00;4.80;;;3.10;;
22610;SDS011;11472;45.494;12.142;2022-09-01T00:07:01;4.80;;;3.10;;
22610;SDS011;11472;45.494;12.142;2022-09-01T00:08:00;4.80;;;3.10;;
22610;SDS011;11472;45.494;12.142;2022-09-01T00:09:04;4.80;;;3.10;;
22610;SDS011;11472;45.494;12.142;2022-09-01T00:10:03;4.80;;;3.10;;
22610;SDS011;11472;45.494;12.142;2022-09-01T00:11:00;4.00;;;2.90;;
22610;SDS011;11472;45.494;12.142;2022-09-01T00:12:01;4.00;;;2.90;;
22610;SDS011;11472;45.494;12.142;2022-09-01T00:13:01;4.00;;;2.90;;
22610;SDS011;11472;45.494;12.142;2022-09-01T00:14:01;4.00;;;2.90;;
22610;SDS011;11472;45.494;12.142;2022-09-01T00:15:03;4.00;;;2.90;;
22610;SDS011;11472;45.494;12.142;2022-09-01T00:16:03;4.00;;;2.90;;
22610;SDS011;11472;45.494;12.142;2022-09-01T00:17:03;4.00;;;2.90;;
22610;SDS011;11472;45.494;12.142;2022-09-01T00:18:00;4.00;;;2.90;;
22610;SDS011;11472;45.494;12.142;2022-09-01T00:19:01;4.00;;;2.90;;
22610;SDS011;11472;45.494;12.142;2022-09-01T00:20:00;4.00;;;2.90;;
22610;SDS011;11472;45.494;12.142;2022-09-01T00:21:00;4.00;;;2.90;;
22610;SDS011;11472;45.494;12.142;2022-09-01T00:22:01;4.00;;;2.90;;
22610;SDS011;11472;45.494;12.142;2022-09-01T00:23:00;4.00;;;2.90;;
22610;SDS011;11472;45.494;12.142;2022-09-01T00:24:01;4.00;;;2.90;;
22610;SDS011;11472;45.494;12.142;2022-09-01T00:25:01;4.00;;;2.90;;
22610;SDS011;11472;45.494;12.142;2022-09-01T00:26:00;3.50;;;2.80;;
22610;SDS011;11472;45.494;12.142;2022-09-01T00:27:00;3.50;;;2.80;;
22610;SDS011;11472;45.494;12.142;2022-09-01T00:28:03;3.50;;;2.80;;
22610;SDS011;11472;45.494;12.142;2022-09-01T00:29:00;3.50;;;2.80;;
22610;SDS011;11472;45.494;12.142;2022-09-01T00:30:00;3.50;;;2.80;;
22610;SDS011;11472;45.494;12.142;2022-09-01T00:31:02;3.50;;;2.80;;
22610;SDS011;11472;45.494;12.142;2022-09-01T00:32:00;3.50;;;2.80;;
22610;SDS011;11472;45.494;12.142;2022-09-01T00:33:01;3.50;;;2.80;;
22610;SDS011;11472;45.494;12.142;2022-09-01T00:34:01;3.50;;;2.80;;
22610;SDS011;11472;45.494;12.142;2022-09-01T00:35:01;3.50;;;2.80;;
22610;SDS011;11472;45.494;12.142;2022-09-01T00:36:01;3.50;;;2.80;;
22610;SDS011;11472;45.494;12.142;2022-09-01T00:37:00;3.50;;;2.80;;
22610;SDS011;11472;45.494;12.142;2022-09-01T00:38:00;3.50;;;2.80;;
22610;SDS011;11472;45.494;12.142;2022-09-01T00:39:00;3.50;;;2.80;;
22610;SDS011;11472;45.494;12.142;2022-09-01T00:40:00;3.50;;;2.80;;
22610;SDS011;11472;45.494;12.142;2022-09-01T00:41:00;4.40;;;3.10;;
22610;SDS011;11472;45.494;12.142;2022-09-01T00:42:01;4.40;;;3.10;;
22610;SDS011;11472;45.494;12.142;2022-09-01T00:43:09;4.40;;;3.10;;
22610;SDS011;11472;45.494;12.142;2022-09-01T00:44:06;4.40;;;3.10;;
22610;SDS011;11472;45.494;12.142;2022-09-01T00:45:00;4.40;;;3.10;;
22610;SDS011;11472;45.494;12.142;2022-09-01T00:46:01;4.40;;;3.10;;
22610;SDS011;11472;45.494;12.142;2022-09-01T00:47:00;4.40;;;3.10;;
22610;SDS011;11472;45.494;12.142;2022-09-01T00:48:00;4.40;;;3.10;;
22610;SDS011;11472;45.494;12.142;2022-09-01T00:49:04;4.40;;;3.10;;
22610;SDS011;11472;45.494;12.142;2022-09-01T00:50:01;4.40;;;3.10;;
22610;SDS011;11472;45.494;12.142;2022-09-01T00:51:00;4.40;;;3.10;;
22610;SDS011;11472;45.494;12.142;2022-09-01T00:52:04;4.40;;;3.10;;
22610;SDS011;11472;45.494;12.142;2022-09-01T00:53:00;4.40;;;3.10;;
22610;SDS011;11472;45.494;12.142;2022-09-01T00:54:00;4.40;;;3.10;;
22610;SDS011;11472;45.494;12.142;2022-09-01T00:55:06;4.40;;;3.10;;
22610;SDS011;11472;45.494;12.142;2022-09-01T00:56:02;4.10;;;3.30;;
22610;SDS011;11472;45.494;12.142;2022-09-01T00:57:01;4.10;;;3.30;;
22610;SDS011;11472;45.494;12.142;2022-09-01T00:58:01;4.10;;;3.30;;
22610;SDS011;11472;45.494;12.142;2022-09-01T00:59:00;4.10;;;3.30;;
22610;SDS011;11472;45.494;12.142;2022-09-01T01:00:07;4.10;;;3.30;;
22610;SDS011;11472;45.494;12.142;2022-09-01T01:01:01;4.10;;;3.30;;
22610;SDS011;11472;45.494;12.142;2022-09-01T01:02:00;4.10;;;3.30;;
22610;SDS011;11472;45.494;12.142;2022-09-01T01:03:00;4.10;;;3.30;;
22610;SDS011;11472;45.494;12.142;2022-09-01T01:04:02;4.10;;;3.30;;
22610;SDS011;11472;45.494;12.142;2022-09-01T01:05:02;4.10;;;3.30;;
22610;SDS011;11472;45.494;12.142;2022-09-01T01:06:04;4.10;;;3.30;;
22610;SDS011;11472;45.494;12.142;2022-09-01T01:07:01;4.10;;;3.30;;
22610;SDS011;11472;45.494;12.142;2022-09-01T01:08:01;4.10;;;3.30;;
22610;SDS011;11472;45.494;12.142;2022-09-01T01:09:00;4.10;;;3.30;;
22610;SDS011;11472;45.494;12.142;2022-09-01T01:10:01;4.10;;;3.30;;
22610;SDS011;11472;45.494;12.142;2022-09-01T01:11:02;4.50;;;3.60;;
22610;SDS011;11472;45.494;12.142;2022-09-01T01:12:03;4.50;;;3.60;;
22610;SDS011;11472;45.494;12.142;2022-09-01T01:13:05;4.50;;;3.60;;
22610;SDS011;11472;45.494;12.142;2022-09-01T01:14:10;4.50;;;3.60;;
22610;SDS011;11472;45.494;12.142;2022-09-01T01:15:01;4.50;;;3.60;;
22610;SDS011;11472;45.494;12.142;2022-09-01T01:16:02;4.50;;;3.60;;
22610;SDS011;11472;45.494;12.142;2022-09-01T01:17:01;4.50;;;3.60;;
22610;SDS011;11472;45.494;12.142;2022-09-01T01:18:00;4.50;;;3.60;;
22610;SDS011;11472;45.494;12.142;2022-09-01T01:19:00;4.50;;;3.60;;
22610;SDS011;11472;45.494;12.142;2022-09-01T01:20:11;4.50;;;3.60;;
22610;SDS011;11472;45.494;12.142;2022-09-01T01:21:18;4.50;;;3.60;;
22610;SDS011;11472;45.494;12.142;2022-09-01T01:22:13;4.50;;;3.60;;
22610;SDS011;11472;45.494;12.142;2022-09-01T01:23:29;4.50;;;3.60;;
22610;SDS011;11472;45.494;12.142;2022-09-01T01:24:26;4.50;;;3.60;;
22610;SDS011;11472;45.494;12.142;2022-09-01T01:25:01;4.50;;;3.60;;
22610;SDS011;11472;45.494;12.142;2022-09-01T01:26:00;5.90;;;3.10;;
22610;SDS011;11472;45.494;12.142;2022-09-01T01:27:00;5.90;;;3.10;;
22610;SDS011;11472;45.494;12.142;2022-09-01T01:28:11;5.90;;;3.10;;
22610;SDS011;11472;45.494;12.142;2022-09-01T01:29:02;5.90;;;3.10;;
22610;SDS011;11472;45.494;12.142;2022-09-01T01:30:02;5.90;;;3.10;;
22610;SDS011;11472;45.494;12.142;2022-09-01T01:31:13;5.90;;;3.10;;
22610;SDS011;11472;45.494;12.142;2022-09-01T01:32:01;5.90;;;3.10;;
22610;SDS011;11472;45.494;12.142;2022-09-01T01:33:01;5.90;;;3.10;;
22610;SDS011;11472;45.494;12.142;2022-09-01T01:34:01;5.90;;;3.10;;
22610;SDS011;11472;45.494;12.142;2022-09-01T01:35:04;5.90;;;3.10;;
22610;SDS011;11472;45.494;12.142;2022-09-01T01:36:01;5.90;;;3.10;;
22610;SDS011;11472;45.494;12.142;2022-09-01T01:37:00;5.90;;;3.10;;
22610;SDS011;11472;45.494;12.142;2022-09-01T01:38:02;5.90;;;3.10;;
22610;SDS011;11472;45.494;12.142;2022-09-01T01:40:01;5.90;;;3.10;;
22610;SDS011;11472;45.494;12.142;2022-09-01T01:41:01;5.50;;;3.40;;
22610;SDS011;11472;45.494;12.142;2022-09-01T01:42:00;5.50;;;3.40;;
22610;SDS011;11472;45.494;12.142;2022-09-01T01:43:00;5.50;;;3.40;;
22610;SDS011;11472;45.494;12.142;2022-09-01T01:44:03;5.50;;;3.40;;
22610;SDS011;11472;45.494;12.142;2022-09-01T01:45:00;5.50;;;3.40;;
22610;SDS011;11472;45.494;12.142;2022-09-01T01:46:02;5.50;;;3.40;;
22610;SDS011;11472;45.494;12.142;2022-09-01T01:47:09;5.50;;;3.40;;
22610;SDS011;11472;45.494;12.142;2022-09-01T01:48:05;5.50;;;3.40;;
22610;SDS011;11472;45.494;12.142;2022-09-01T01:49:02;5.50;;;3.40;;
22610;SDS011;11472;45.494;12.142;2022-09-01T01:50:02;5.50;;;3.40;;
22610;SDS011;11472;45.494;12.142;2022-09-01T01:51:01;5.50;;;3.40;;
22610;SDS011;11472;45.494;12.142;2022-09-01T01:52:00;5.50;;;3.40;;
22610;SDS011;11472;45.494;12.142;2022-09-01T01:53:02;5.50;;;3.40;;
22610;SDS011;11472;45.494;12.142;2022-09-01T01:54:04;5.50;;;3.40;;
22610;SDS011;11472;45.494;12.142;2022-09-01T01:55:11;5.50;;;3.40;;
22610;SDS011;11472;45.494;12.142;2022-09-01T01:56:01;4.50;;;3.50;;
22610;SDS011;11472;45.494;12.142;2022-09-01T01:57:03;4.50;;;3.50;;
22610;SDS011;11472;45.494;12.142;2022-09-01T01:58:00;4.50;;;3.50;;
22610;SDS011;11472;45.494;12.142;2022-09-01T01:59:01;4.50;;;3.50;;
22610;SDS011;11472;45.494;12.142;2022-09-01T02:00:01;4.50;;;3.50;;
22610;SDS011;11472;45.494;12.142;2022-09-01T02:01:02;4.50;;;3.50;;
22610;SDS011;11472;45.494;12.142;2022-09-01T02:02:07;4.50;;;3.50;;
22610;SDS011;11472;45.494;12.142;2022-09-01T02:03:00;4.50;;;3.50;;
22610;SDS011;11472;45.494;12.142;2022-09-01T02:04:04;4.50;;;3.50;;
22610;SDS011;11472;45.494;12.142;2022-09-01T02:05:00;4.50;;;3.50;;
22610;SDS011;11472;45.494;12.142;2022-09-01T02:06:08;4.50;;;3.50;;
22610;SDS011;11472;45.494;12.142;2022-09-01T02:07:00;4.50;;;3.50;;
22610;SDS011;11472;45.494;12.142;2022-09-01T02:08:05;4.50;;;3.50;;
22610;SDS011;11472;45.494;12.142;2022-09-01T02:09:02;4.50;;;3.50;;
22610;SDS011;11472;45.494;12.142;2022-09-01T02:10:00;4.50;;;3.50;;
22610;SDS011;11472;45.494;12.142;2022-09-01T02:11:01;5.90;;;3.20;;
22610;SDS011;11472;45.494;12.142;2022-09-01T02:12:00;5.90;;;3.20;;
22610;SDS011;11472;45.494;12.142;2022-09-01T02:13:06;5.90;;;3.20;;
22610;SDS011;11472;45.494;12.142;2022-09-01T02:14:00;5.90;;;3.20;;
22610;SDS011;11472;45.494;12.142;2022-09-01T02:15:01;5.90;;;3.20;;
22610;SDS011;11472;45.494;12.142;2022-09-01T02:16:04;5.90;;;3.20;;
22610;SDS011;11472;45.494;12.142;2022-09-01T02:17:00;5.90;;;3.20;;
22610;SDS011;11472;45.494;12.142;2022-09-01T02:18:00;5.90;;;3.20;;
22610;SDS011;11472;45.494;12.142;2022-09-01T02:19:02;5.90;;;3.20;;
22610;SDS011;11472;45.494;12.142;2022-09-01T02:20:00;5.90;;;3.20;;
22610;SDS011;11472;45.494;12.142;2022-09-01T02:21:03;5.90;;;3.20;;
22610;SDS011;11472;45.494;12.142;2022-09-01T02:22:00;5.90;;;3.20;;
22610;SDS011;11472;45.494;12.142;2022-09-01T02:23:08;5.90;;;3.20;;
22610;SDS011;11472;45.494;12.142;2022-09-01T02:24:03;5.90;;;3.20;;
22610;SDS011;11472;45.494;12.142;2022-09-01T02:25:00;5.90;;;3.20;;
22610;SDS011;11472;45.494;12.142;2022-09-01T02:26:10;6.50;;;3.50;;
22610;SDS011;11472;45.494;12.142;2022-09-01T02:27:02;6.50;;;3.50;;
22610;SDS011;11472;45.494;12.142;2022-09-01T02:28:02;6.50;;;3.50;;
22610;SDS011;11472;45.494;12.142;2022-09-01T02:29:05;6.50;;;3.50;;
22610;SDS011;11472;45.494;12.142;2022-09-01T02:30:01;6.50;;;3.50;;
22610;SDS011;11472;45.494;12.142;2022-09-01T02:31:02;6.50;;;3.50;;
22610;SDS011;11472;45.494;12.142;2022-09-01T02:32:00;6.50;;;3.50;;
22610;SDS011;11472;45.494;12.142;2022-09-01T02:33:00;6.50;;;3.50;;
22610;SDS011;11472;45.494;12.142;2022-09-01T02:34:01;6.50;;;3.50;;
22610;SDS011;11472;45.494;12.142;2022-09-01T02:35:00;6.50;;;3.50;;
22610;SDS011;11472;45.494;12.142;2022-09-01T02:36:03;6.50;;;3.50;;
22610;SDS011;11472;45.494;12.142;2022-09-01T02:37:00;6.50;;;3.50;;
22610;SDS011;11472;45.494;12.142;2022-09-01T02:38:00;6.50;;;3.50;;
22610;SDS011;11472;45.494;12.142;2022-09-01T02:39:00;6.50;;;3.50;;
22610;SDS011;11472;45.494;12.142;2022-09-01T02:40:01;6.50;;;3.50;;
22610;SDS011;11472;45.494;12.142;2022-09-01T02:41:01;5.40;;;3.50;;
22610;SDS011;11472;45.494;12.142;2022-09-01T02:42:00;5.40;;;3.50;;
22610;SDS011;11472;45.494;12.142;2022-09-01T02:43:00;5.40;;;3.50;;
22610;SDS011;11472;45.494;12.142;2022-09-01T02:44:02;5.40;;;3.50;;
22610;SDS011;11472;45.494;12.142;2022-09-01T02:45:01;5.40;;;3.50;;
22610;SDS011;11472;45.494;12.142;2022-09-01T02:46:01;5.40;;;3.50;;
22610;SDS011;11472;45.494;12.142;2022-09-01T02:47:00;5.40;;;3.50;;
22610;SDS011;11472;45.494;12.142;2022-09-01T02:48:00;5.40;;;3.50;;
22610;SDS011;11472;45.494;12.142;2022-09-01T02:49:03;5.40;;;3.50;;
22610;SDS011;11472;45.494;12.142;2022-09-01T02:50:00;5.40;;;3.50;;
22610;SDS011;11472;45.494;12.142;2022-09-01T02:51:03;5.40;;;3.50;;
22610;SDS011;11472;45.494;12.142;2022-09-01T02:52:01;5.40;;;3.50;;
22610;SDS011;11472;45.494;12.142;2022-09-01T02:53:08;5.40;;;3.50;;
22610;SDS011;11472;45.494;12.142;2022-09-01T02:54:00;5.40;;;3.50;;
22610;SDS011;11472;45.494;12.142;2022-09-01T02:55:02;5.40;;;3.50;;
22610;SDS011;11472;45.494;12.142;2022-09-01T02:56:02;4.30;;;3.10;;
22610;SDS011;11472;45.494;12.142;2022-09-01T02:57:00;4.30;;;3.10;;
22610;SDS011;11472;45.494;12.142;2022-09-01T02:58:01;4.30;;;3.10;;
22610;SDS011;11472;45.494;12.142;2022-09-01T02:59:02;4.30;;;3.10;;
22610;SDS011;11472;45.494;12.142;2022-09-01T03:00:02;4.30;;;3.10;;
22610;SDS011;11472;45.494;12.142;2022-09-01T03:01:00;4.30;;;3.10;;
22610;SDS011;11472;45.494;12.142;2022-09-01T03:02:00;4.30;;;3.10;;
22610;SDS011;11472;45.494;12.142;2022-09-01T03:03:01;4.30;;;3.10;;
22610;SDS011;11472;45.494;12.142;2022-09-01T03:04:03;4.30;;;3.10;;
22610;SDS011;11472;45.494;12.142;2022-09-01T03:05:03;4.30;;;3.10;;
22610;SDS011;11472;45.494;12.142;2022-09-01T03:06:00;4.30;;;3.10;;
22610;SDS011;11472;45.494;12.142;2022-09-01T03:07:03;4.30;;;3.10;;
22610;SDS011;11472;45.494;12.142;2022-09-01T03:08:03;4.30;;;3.10;;
22610;SDS011;11472;45.494;12.142;2022-09-01T03:09:01;4.30;;;3.10;;
22610;SDS011;11472;45.494;12.142;2022-09-01T03:10:02;4.30;;;3.10;;
22610;SDS011;11472;45.494;12.142;2022-09-01T03:11:01;3.90;;;3.20;;
22610;SDS011;11472;45.494;12.142;2022-09-01T03:12:01;3.90;;;3.20;;
22610;SDS011;11472;45.494;12.142;2022-09-01T03:13:04;3.90;;;3.20;;
22610;SDS011;11472;45.494;12.142;2022-09-01T03:14:00;3.90;;;3.20;;
22610;SDS011;11472;45.494;12.142;2022-09-01T03:15:00;3.90;;;3.20;;
22610;SDS011;11472;45.494;12.142;2022-09-01T03:16:00;3.90;;;3.20;;
22610;SDS011;11472;45.494;12.142;2022-09-01T03:17:00;3.90;;;3.20;;
22610;SDS011;11472;45.494;12.142;2022-09-01T03:18:02;3.90;;;3.20;;
22610;SDS011;11472;45.494;12.142;2022-09-01T03:19:02;3.90;;;3.20;;
22610;SDS011;11472;45.494;12.142;2022-09-01T03:20:01;3.90;;;3.20;;
22610;SDS011;11472;45.494;12.142;2022-09-01T03:21:01;3.90;;;3.20;;
22610;SDS011;11472;45.494;12.142;2022-09-01T03:22:00;3.90;;;3.20;;
22610;SDS011;11472;45.494;12.142;2022-09-01T03:23:03;3.90;;;3.20;;
22610;SDS011;11472;45.494;12.142;2022-09-01T03:24:02;3.90;;;3.20;;
22610;SDS011;11472;45.494;12.142;2022-09-01T03:25:00;3.90;;;3.20;;
22610;SDS011;11472;45.494;12.142;2022-09-01T03:26:01;4.20;;;3.10;;
22610;SDS011;11472;45.494;12.142;2022-09-01T03:27:00;4.20;;;3.10;;
22610;SDS011;11472;45.494;12.142;2022-09-01T03:28:04;4.20;;;3.10;;
22610;SDS011;11472;45.494;12.142;2022-09-01T03:29:00;4.20;;;3.10;;
22610;SDS011;11472;45.494;12.142;2022-09-01T03:30:00;4.20;;;3.10;;
22610;SDS011;11472;45.494;12.142;2022-09-01T03:31:00;4.20;;;3.10;;
22610;SDS011;11472;45.494;12.142;2022-09-01T03:32:00;4.20;;;3.10;;
22610;SDS011;11472;45.494;12.142;2022-09-01T03:33:01;4.20;;;3.10;;
22610;SDS011;11472;45.494;12.142;2022-09-01T03:34:02;4.20;;;3.10;;
22610;SDS011;11472;45.494;12.142;2022-09-01T03:35:00;4.20;;;3.10;;
22610;SDS011;11472;45.494;12.142;2022-09-01T03:36:00;4.20;;;3.10;;
22610;SDS011;11472;45.494;12.142;2022-09-01T03:37:03;4.20;;;3.10;;
22610;SDS011;11472;45.494;12.142;2022-09-01T03:38:01;4.20;;;3.10;;
22610;SDS011;11472;45.494;12.142;2022-09-01T03:39:00;4.20;;;3.10;;
22610;SDS011;11472;45.494;12.142;2022-09-01T03:40:04;4.20;;;3.10;;
22610;SDS011;11472;45.494;12.142;2022-09-01T03:41:02;2.50;;;2.10;;
22610;SDS011;11472;45.494;12.142;2022-09-01T03:42:00;2.50;;;2.10;;
22610;SDS011;11472;45.494;12.142;2022-09-01T03:43:03;2.50;;;2.10;;
22610;SDS011;11472;45.494;12.142;2022-09-01T03:44:00;2.50;;;2.10;;
22610;SDS011;11472;45.494;12.142;2022-09-01T03:45:07;2.50;;;2.10;;
22610;SDS011;11472;45.494;12.142;2022-09-01T03:46:00;2.50;;;2.10;;
22610;SDS011;11472;45.494;12.142;2022-09-01T03:47:00;2.50;;;2.10;;
22610;SDS011;11472;45.494;12.142;2022-09-01T03:48:08;2.50;;;2.10;;
22610;SDS011;11472;45.494;12.142;2022-09-01T03:49:04;2.50;;;2.10;;
22610;SDS011;11472;45.494;12.142;2022-09-01T03:50:01;2.50;;;2.10;;
22610;SDS011;11472;45.494;12.142;2022-09-01T03:51:01;2.50;;;2.10;;
22610;SDS011;11472;45.494;12.142;2022-09-01T03:52:00;2.50;;;2.10;;
22610;SDS011;11472;45.494;12.142;2022-09-01T03:53:00;2.50;;;2.10;;
22610;SDS011;11472;45.494;12.142;2022-09-01T03:54:00;2.50;;;2.10;;
22610;SDS011;11472;45.494;12.142;2022-09-01T03:55:00;2.50;;;2.10;;
22610;SDS011;11472;45.494;12.142;2022-09-01T03:56:03;2.00;;;1.70;;
22610;SDS011;11472;45.494;12.142;2022-09-01T03:57:00;2.00;;;1.70;;
22610;SDS011;11472;45.494;12.142;2022-09-01T03:58:06;2.00;;;1.70;;
22610;SDS011;11472;45.494;12.142;2022-09-01T03:59:00;2.00;;;1.70;;
22610;SDS011;11472;45.494;12.142;2022-09-01T04:00:00;2.00;;;1.70;;
22610;SDS011;11472;45.494;12.142;2022-09-01T04:01:01;2.00;;;1.70;;
22610;SDS011;11472;45.494;12.142;2022-09-01T04:02:02;2.00;;;1.70;;
22610;SDS011;11472;45.494;12.142;2022-09-01T04:03:02;2.00;;;1.70;;
22610;SDS011;11472;45.494;12.142;2022-09-01T04:04:00;2.00;;;1.70;;
22610;SDS011;11472;45.494;12.142;2022-09-01T04:05:01;2.00;;;1.70;;
22610;SDS011;11472;45.494;12.142;2022-09-01T04:06:02;2.00;;;1.70;;
22610;SDS011;11472;45.494;12.142;2022-09-01T04:07:00;2.00;;;1.70;;
22610;SDS011;11472;45.494;12.142;2022-09-01T04:08:04;2.00;;;1.70;;
22610;SDS011;11472;45.494;12.142;2022-09-01T04:09:01;2.00;;;1.70;;
22610;SDS011;11472;45.494;12.142;2022-09-01T04:10:00;2.00;;;1.70;;
22610;SDS011;11472;45.494;12.142;2022-09-01T04:11:09;2.50;;;1.70;;
22610;SDS011;11472;45.494;12.142;2022-09-01T04:12:02;2.50;;;1.70;;
22610;SDS011;11472;45.494;12.142;2022-09-01T04:13:01;2.50;;;1.70;;
22610;SDS011;11472;45.494;12.142;2022-09-01T04:14:00;2.50;;;1.70;;
22610;SDS011;11472;45.494;12.142;2022-09-01T04:15:00;2.50;;;1.70;;
22610;SDS011;11472;45.494;12.142;2022-09-01T04:16:00;2.50;;;1.70;;
22610;SDS011;11472;45.494;12.142;2022-09-01T04:17:10;2.50;;;1.70;;
22610;SDS011;11472;45.494;12.142;2022-09-01T04:18:08;2.50;;;1.70;;
22610;SDS011;11472;45.494;12.142;2022-09-01T04:19:00;2.50;;;1.70;;
22610;SDS011;11472;45.494;12.142;2022-09-01T04:20:08;2.50;;;1.70;;
22610;SDS011;11472;45.494;12.142;2022-09-01T04:21:01;2.50;;;1.70;;
22610;SDS011;11472;45.494;12.142;2022-09-01T04:22:01;2.50;;;1.70;;
22610;SDS011;11472;45.494;12.142;2022-09-01T04:23:03;2.50;;;1.70;;
22610;SDS011;11472;45.494;12.142;2022-09-01T04:24:04;2.50;;;1.70;;
22610;SDS011;11472;45.494;12.142;2022-09-01T04:25:00;2.50;;;1.70;;
22610;SDS011;11472;45.494;12.142;2022-09-01T04:26:09;1.90;;;1.50;;
22610;SDS011;11472;45.494;12.142;2022-09-01T04:27:01;1.90;;;1.50;;
22610;SDS011;11472;45.494;12.142;2022-09-01T04:28:10;1.90;;;1.50;;
22610;SDS011;11472;45.494;12.142;2022-09-01T04:29:01;1.90;;;1.50;;
22610;SDS011;11472;45.494;12.142;2022-09-01T04:30:00;1.90;;;1.50;;
22610;SDS011;11472;45.494;12.142;2022-09-01T04:31:05;1.90;;;1.50;;
22610;SDS011;11472;45.494;12.142;2022-09-01T04:32:06;1.90;;;1.50;;
22610;SDS011;11472;45.494;12.142;2022-09-01T04:33:00;1.90;;;1.50;;
22610;SDS011;11472;45.494;12.142;2022-09-01T04:34:01;1.90;;;1.50;;
22610;SDS011;11472;45.494;12.142;2022-09-01T04:35:01;1.90;;;1.50;;
22610;SDS011;11472;45.494;12.142;2022-09-01T04:36:02;1.90;;;1.50;;
22610;SDS011;11472;45.494;12.142;2022-09-01T04:37:02;1.90;;;1.50;;
22610;SDS011;11472;45.494;12.142;2022-09-01T04:38:00;1.90;;;1.50;;
22610;SDS011;11472;45.494;12.142;2022-09-01T04:39:01;1.90;;;1.50;;
22610;SDS011;11472;45.494;12.142;2022-09-01T04:40:01;1.90;;;1.50;;
22610;SDS011;11472;45.494;12.142;2022-09-01T04:41:08;1.60;;;1.50;;
22610;SDS011;11472;45.494;12.142;2022-09-01T04:42:05;1.60;;;1.50;;
22610;SDS011;11472;45.494;12.142;2022-09-01T04:43:00;1.60;;;1.50;;
22610;SDS011;11472;45.494;12.142;2022-09-01T04:44:04;1.60;;;1.50;;
22610;SDS011;11472;45.494;12.142;2022-09-01T04:45:02;1.60;;;1.50;;
22610;SDS011;11472;45.494;12.142;2022-09-01T04:46:02;1.60;;;1.50;;
22610;SDS011;11472;45.494;12.142;2022-09-01T04:47:00;1.60;;;1.50;;
22610;SDS011;11472;45.494;12.142;2022-09-01T04:48:03;1.60;;;1.50;;
22610;SDS011;11472;45.494;12.142;2022-09-01T04:49:08;1.60;;;1.50;;
22610;SDS011;11472;45.494;12.142;2022-09-01T04:50:01;1.60;;;1.50;;
22610;SDS011;11472;45.494;12.142;2022-09-01T04:51:04;1.60;;;1.50;;
22610;SDS011;11472;45.494;12.142;2022-09-01T04:52:00;1.60;;;1.50;;
22610;SDS011;11472;45.494;12.142;2022-09-01T04:53:02;1.60;;;1.50;;
22610;SDS011;11472;45.494;12.142;2022-09-01T04:54:01;1.60;;;1.50;;
22610;SDS011;11472;45.494;12.142;2022-09-01T04:55:02;1.60;;;1.50;;
22610;SDS011;11472;45.494;12.142;2022-09-01T04:56:05;1.60;;;1.50;;
22610;SDS011;11472;45.494;12.142;2022-09-01T04:57:00;1.70;;;1.40;;
22610;SDS011;11472;45.494;12.142;2022-09-01T04:58:03;1.70;;;1.40;;
22610;SDS011;11472;45.494;12.142;2022-09-01T04:59:06;1.70;;;1.40;;
22610;SDS011;11472;45.494;12.142;2022-09-01T05:00:00;1.70;;;1.40;;
22610;SDS011;11472;45.494;12.142;2022-09-01T05:01:22;1.70;;;1.40;;
22610;SDS011;11472;45.494;12.142;2022-09-01T05:02:00;1.70;;;1.40;;
22610;SDS011;11472;45.494;12.142;2022-09-01T05:03:03;1.70;;;1.40;;
22610;SDS011;11472;45.494;12.142;2022-09-01T05:04:00;1.70;;;1.40;;
22610;SDS011;11472;45.494;12.142;2022-09-01T05:05:02;1.70;;;1.40;;
22610;SDS011;11472;45.494;12.142;2022-09-01T05:06:01;1.70;;;1.40;;
22610;SDS011;11472;45.494;12.142;2022-09-01T05:07:01;1.70;;;1.40;;
22610;SDS011;11472;45.494;12.142;2022-09-01T05:08:00;1.70;;;1.40;;
22610;SDS011;11472;45.494;12.142;2022-09-01T05:09:00;1.70;;;1.40;;
22610;SDS011;11472;45.494;12.142;2022-09-01T05:10:01;1.70;;;1.40;;
22610;SDS011;11472;45.494;12.142;2022-09-01T05:11:06;1.70;;;1.40;;
22610;SDS011;11472;45.494;12.142;2022-09-01T05:12:10;2.30;;;1.50;;
22610;SDS011;11472;45.494;12.142;2022-09-01T05:13:00;2.30;;;1.50;;
22610;SDS011;11472;45.494;12.142;2022-09-01T05:14:04;2.30;;;1.50;;
22610;SDS011;11472;45.494;12.142;2022-09-01T05:15:05;2.30;;;1.50;;
22610;SDS011;11472;45.494;12.142;2022-09-01T05:16:03;2.30;;;1.50;;
22610;SDS011;11472;45.494;12.142;2022-09-01T05:17:01;2.30;;;1.50;;
22610;SDS011;11472;45.494;12.142;2022-09-01T05:18:01;2.30;;;1.50;;
22610;SDS011;11472;45.494;12.142;2022-09-01T05:19:01;2.30;;;1.50;;
22610;SDS011;11472;45.494;12.142;2022-09-01T05:20:00;2.30;;;1.50;;
22610;SDS011;11472;45.494;12.142;2022-09-01T05:21:08;2.30;;;1.50;;
22610;SDS011;11472;45.494;12.142;2022-09-01T05:22:00;2.30;;;1.50;;
22610;SDS011;11472;45.494;12.142;2022-09-01T05:23:00;2.30;;;1.50;;
22610;SDS011;11472;45.494;12.142;2022-09-01T05:24:02;2.30;;;1.50;;
22610;SDS011;11472;45.494;12.142;2022-09-01T05:25:10;2.30;;;1.50;;
22610;SDS011;11472;45.494;12.142;2022-09-01T05:26:02;2.30;;;1.50;;
22610;SDS011;11472;45.494;12.142;2022-09-01T05:27:01;1.30;;;1.20;;
22610;SDS011;11472;45.494;12.142;2022-09-01T05:28:01;1.30;;;1.20;;
22610;SDS011;11472;45.494;12.142;2022-09-01T05:29:02;1.30;;;1.20;;
22610;SDS011;11472;45.494;12.142;2022-09-01T05:30:01;1.30;;;1.20;;
22610;SDS011;11472;45.494;12.142;2022-09-01T05:31:01;1.30;;;1.20;;
22610;SDS011;11472;45.494;12.142;2022-09-01T05:32:08;1.30;;;1.20;;
22610;SDS011;11472;45.494;12.142;2022-09-01T05:33:00;1.30;;;1.20;;
22610;SDS011;11472;45.494;12.142;2022-09-01T05:34:01;1.30;;;1.20;;
22610;SDS011;11472;45.494;12.142;2022-09-01T05:35:02;1.30;;;1.20;;
22610;SDS011;11472;45.494;12.142;2022-09-01T05:36:01;1.30;;;1.20;;
22610;SDS011;11472;45.494;12.142;2022-09-01T05:37:00;1.30;;;1.20;;
22610;SDS011;11472;45.494;12.142;2022-09-01T05:38:01;1.30;;;1.20;;
22610;SDS011;11472;45.494;12.142;2022-09-01T05:39:01;1.30;;;1.20;;
22610;SDS011;11472;45.494;12.142;2022-09-01T05:40:02;1.30;;;1.20;;
22610;SDS011;11472;45.494;12.142;2022-09-01T05:41:03;1.30;;;1.20;;
22610;SDS011;11472;45.494;12.142;2022-09-01T05:42:00;1.50;;;1.20;;
22610;SDS011;11472;45.494;12.142;2022-09-01T05:43:01;1.50;;;1.20;;
22610;SDS011;11472;45.494;12.142;2022-09-01T05:44:02;1.50;;;1.20;;
22610;SDS011;11472;45.494;12.142;2022-09-01T05:45:01;1.50;;;1.20;;
22610;SDS011;11472;45.494;12.142;2022-09-01T05:46:07;1.50;;;1.20;;
22610;SDS011;11472;45.494;12.142;2022-09-01T05:47:04;1.50;;;1.20;;
22610;SDS011;11472;45.494;12.142;2022-09-01T05:48:02;1.50;;;1.20;;
22610;SDS011;11472;45.494;12.142;2022-09-01T05:49:01;1.50;;;1.20;;
22610;SDS011;11472;45.494;12.142;2022-09-01T05:50:01;1.50;;;1.20;;
22610;SDS011;11472;45.494;12.142;2022-09-01T05:51:03;1.50;;;1.20;;
22610;SDS011;11472;45.494;12.142;2022-09-01T05:52:00;1.50;;;1.20;;
22610;SDS011;11472;45.494;12.142;2022-09-01T05:53:01;1.50;;;1.20;;
22610;SDS011;11472;45.494;12.142;2022-09-01T05:54:01;1.50;;;1.20;;
22610;SDS011;11472;45.494;12.142;2022-09-01T05:55:00;1.50;;;1.20;;
22610;SDS011;11472;45.494;12.142;2022-09-01T05:56:06;1.50;;;1.20;;